METAR Data
IDs: Format: Raw Decoded Include TAF

Data at: 2213 UTC 25 Oct 2021

K0F2 252155Z AUTO 11007KT 10SM CLR 27/13 A2993 RMK AO2 T02730125
K0F2 252135Z AUTO 13006KT 10SM CLR 27/13 A2993 RMK AO2 T02730127
K0F2 252115Z AUTO 13006KT 10SM CLR 27/12 A2993 RMK AO2 T02710121
K0F2 252055Z AUTO 11009G14KT 10SM CLR 27/12 A2994 RMK AO2 T02740120
K0F2 252035Z AUTO 11008KT 090V170 10SM CLR 27/11 A2994 RMK AO2 T02740113
K0F2 252015Z AUTO 13009G14KT 10SM CLR 27/10 A2995 RMK AO2 T02730101
K0F2 251955Z AUTO 13008G17KT 10SM CLR 27/09 A2995 RMK AO2 T02710094
K0F2 251935Z AUTO 14009G15KT 100V160 10SM CLR 27/10 A2995 RMK AO2 T02720096
K0F2 251915Z AUTO 14007KT 10SM CLR 27/10 A2996 RMK AO2 T02670099
K0F2 251855Z AUTO 13006KT 10SM CLR 27/11 A2997 RMK AO2 T02670106
K0F2 251835Z AUTO 10009KT 10SM CLR 26/10 A2998 RMK AO2 T02600102
K0F2 251815Z AUTO 14006G14KT 10SM CLR 26/10 A2999 RMK AO2 T02560096
K0F2 251755Z AUTO 10009KT 10SM CLR 26/11 A3000 RMK AO2 T02560105 10256 20100
K0F2 251735Z AUTO 12006KT 10SM CLR 25/11 A3000 RMK AO2 T02520112
K0F2 251715Z AUTO 10006KT 10SM CLR 25/12 A3001 RMK AO2 T02460119
K0F2 251655Z AUTO 11007KT 080V140 10SM CLR 24/13 A3001 RMK AO2 T02380125
K0F2 251635Z AUTO 11008KT 080V140 10SM CLR 24/12 A3001 RMK AO2 T02350124
K0F2 251615Z AUTO 12005KT 10SM CLR 23/13 A3002 RMK AO2 T02280128
K0F2 251555Z AUTO 11006KT 10SM CLR 22/13 A3002 RMK AO2 T02210129
K0F2 251535Z AUTO 11007KT 10SM CLR 21/13 A3002 RMK AO2 T02130126
K0F2 251515Z AUTO 09007KT 10SM CLR 21/13 A3002 RMK AO2 T02080131
K0F2 251455Z AUTO 11004KT 10SM CLR 19/14 A3002 RMK AO2 T01930141
K0F2 251435Z AUTO 08003KT 10SM CLR 18/14 A3002 RMK AO2 T01830142
K0F2 251415Z AUTO 00000KT 10SM CLR 17/14 A3002 RMK AO2 T01690136
K0F2 251355Z AUTO 00000KT 10SM CLR 15/13 A3001 RMK AO2 T01540131
K0F2 251335Z AUTO 00000KT 10SM CLR 13/12 A3001 RMK AO2 T01330121
K0F2 251315Z AUTO 00000KT 10SM CLR 11/10 A3000 RMK AO2 T01100102
K0F2 251255Z AUTO 00000KT 10SM CLR 10/09 A3000 RMK AO2 T01030094
K0F2 251235Z AUTO 00000KT 10SM CLR 11/10 A3000 RMK AO2 T01070098
K0F2 251215Z AUTO 00000KT 10SM CLR 10/09 A2999 RMK AO2 T01020090
K0F2 251155Z AUTO 00000KT 10SM CLR 12/11 A2998 RMK AO2 T01180108 10143 20107
K0F2 251135Z AUTO 00000KT 10SM CLR 13/12 A2997 RMK AO2 T01300116
K0F2 251115Z AUTO 00000KT 10SM CLR 12/11 A2996 RMK AO2 T01180108
K0F2 251055Z AUTO 00000KT 10SM CLR 11/10 A2996 RMK AO2 T01130102
K0F2 251035Z AUTO 00000KT 10SM CLR 12/11 A2995 RMK AO2 T01190106
K0F2 251015Z AUTO 00000KT 10SM CLR 11/10 A2995 RMK AO2 T01120101
K0F2 250955Z AUTO 00000KT 10SM CLR 11/10 A2995 RMK AO2 T01110098
K0F2 250935Z AUTO 00000KT 10SM CLR 11/10 A2994 RMK AO2 T01090097
K0F2 250915Z AUTO 00000KT 10SM CLR 11/10 A2994 RMK AO2 T01130099
K0F2 250855Z AUTO 00000KT 10SM CLR 13/11 A2993 RMK AO2 T01250106
K0F2 250835Z AUTO 00000KT 10SM CLR 14/11 A2994 RMK AO2 T01350114
K0F2 250815Z AUTO 00000KT 10SM CLR 13/11 A2994 RMK AO2 T01290109
K0F2 250755Z AUTO 00000KT 10SM CLR 13/11 A2994 RMK AO2 T01260106
K0F2 250735Z AUTO 00000KT 10SM CLR 13/11 A2994 RMK AO2 T01320111
K0F2 250715Z AUTO 00000KT 10SM CLR 13/11 A2993 RMK AO2 T01250105
K0F2 250655Z AUTO 00000KT 10SM CLR 14/12 A2993 RMK AO2 T01420115
K0F2 250635Z AUTO 00000KT 10SM CLR 14/11 A2993 RMK AO2 T01400112
K0F2 250615Z AUTO 00000KT 10SM CLR 14/11 A2993 RMK AO2 T01350110
K0F2 250555Z AUTO 00000KT 10SM CLR 14/11 A2994 RMK AO2 T01370111 10244 20137 403250137
K0F2 250535Z AUTO 00000KT 10SM CLR 15/12 A2994 RMK AO2 T01540115
K0F2 250515Z AUTO 00000KT 10SM CLR 15/11 A2994 RMK AO2 T01540114
K0F2 250455Z AUTO 00000KT 10SM CLR 17/12 A2994 RMK AO2 T01690115
K0F2 250435Z AUTO 00000KT 10SM CLR 17/12 A2993 RMK AO2 T01740116
K0F2 250415Z AUTO 07003KT 10SM CLR 18/12 A2993 RMK AO2 T01780115
K0F2 250355Z AUTO 00000KT 10SM CLR 19/12 A2992 RMK AO2 T01880115
K0F2 250335Z AUTO 01007KT 10SM CLR 20/12 A2990 RMK AO2 T02000116
K0F2 250315Z AUTO 01006KT 10SM CLR 20/12 A2989 RMK AO2 T02010115
K0F2 250255Z AUTO 01010KT 10SM CLR 21/11 A2987 RMK AO2 T02100114
K0F2 250235Z AUTO 36013KT 10SM CLR 21/11 A2987 RMK AO2 T02100112
K0F2 250215Z AUTO 35012KT 10SM CLR 21/11 A2986 RMK AO2 T02100111
K0F2 250155Z AUTO 35010KT 10SM CLR 21/11 A2985 RMK AO2 T02110106
K0F2 250135Z AUTO 35008KT 10SM CLR 22/10 A2984 RMK AO2 T02160096
K0F2 250115Z AUTO 35005KT 10SM CLR 21/10 A2984 RMK AO2 T02130096
K0F2 250055Z AUTO 35007KT 10SM CLR 22/10 A2983 RMK AO2 T02180095
K0F2 250035Z AUTO 34008KT 10SM CLR 23/09 A2982 RMK AO2 T02250088
K0F2 250015Z AUTO 34007KT 10SM CLR 24/08 A2981 RMK AO2 T02350078
K0F2 242355Z AUTO 33008KT 10SM CLR 23/07 A2980 RMK AO2 T02330065 10325 20233
K0F2 242335Z AUTO 33007KT 10SM CLR 26/06 A2979 RMK AO2 T02550059
K0F2 242315Z AUTO 33009G14KT 10SM CLR 27/06 A2979 RMK AO2 T02710057
K0F2 242255Z AUTO 34012G16KT 10SM CLR 28/06 A2979 RMK AO2 T02820061
K0F2 242235Z AUTO 33012G15KT 10SM CLR 29/07 A2978 RMK AO2 T02900071
K0F2 242215Z AUTO 34013KT 10SM CLR 30/07 A2977 RMK AO2 T02970070
K0F2 242155Z AUTO 33015G20KT 10SM CLR 30/08 A2977 RMK AO2 T03040084
K0F2 242135Z AUTO 31013G16KT 10SM CLR 32/08 A2975 RMK AO2 T03190084
K0F2 242115Z AUTO 28007G14KT 10SM CLR 32/09 A2974 RMK AO2 T03220090
K0F2 242055Z AUTO 23008KT 210V270 10SM CLR 32/12 A2973 RMK AO2 T03240120
K0F2 242035Z AUTO 23011G16KT 10SM CLR 32/13 A2973 RMK AO2 T03200129
K0F2 242015Z AUTO 22008G16KT 10SM CLR 31/17 A2973 RMK AO2 T03110166
K0F2 241955Z AUTO 21013G18KT 10SM CLR 31/17 A2974 RMK AO2 T03080169
K0F2 241935Z AUTO 21009KT 10SM CLR 30/18 A2974 RMK AO2 T03030182
K0F2 241915Z AUTO 21011G19KT 10SM SCT049 30/19 A2974 RMK AO2 T02980186
K0F2 241855Z AUTO 22012G16KT 10SM SCT041 SCT049 29/19 A2975 RMK AO2 T02900185
K0F2 241835Z AUTO 20012G20KT 10SM SCT039 BKN047 29/19 A2976 RMK AO2 T02910189
K0F2 241815Z AUTO 20012G16KT 10SM SCT037 BKN045 28/19 A2978 RMK AO2 T02830190
K0F2 241755Z AUTO 19013G19KT 10SM BKN035 29/19 A2978 RMK AO2 T02870194 10289 20190
K0F2 241735Z AUTO 20011G20KT 10SM BKN034 28/19 A2980 RMK AO2 T02770192
K0F2 241715Z AUTO 21012G19KT 10SM SCT029 SCT034 28/20 A2979 RMK AO2 T02770195
K0F2 241655Z AUTO 20013G21KT 10SM SCT029 SCT034 27/19 A2980 RMK AO2 T02670193
K0F2 241635Z AUTO 20017G25KT 10SM SCT029 26/19 A2980 RMK AO2 T02620191
K0F2 241615Z AUTO 18015G26KT 10SM SCT027 26/19 A2979 RMK AO2 T02600192
K0F2 241555Z AUTO 19014G23KT 10SM SCT023 26/19 A2980 RMK AO2 T02550191
K0F2 241535Z AUTO 19018G22KT 10SM SCT025 25/19 A2980 RMK AO2 T02470190
K0F2 241515Z AUTO 19011G15KT 10SM SCT027 24/19 A2980 RMK AO2 T02410188
K0F2 241455Z AUTO 17012G20KT 10SM CLR 23/19 A2980 RMK AO2 T02280185
K0F2 241435Z AUTO 17015G21KT 10SM CLR 22/18 A2980 RMK AO2 T02200183
K0F2 241415Z AUTO 17012G18KT 10SM CLR 21/18 A2980 RMK AO2 T02120182
K0F2 241355Z AUTO 16011G15KT 10SM CLR 20/18 A2979 RMK AO2 T02040180
K0F2 241335Z AUTO 17009G14KT 10SM CLR 20/18 A2979 RMK AO2 T01950177
K0F2 241315Z AUTO 17009G14KT 10SM CLR 19/18 A2979 RMK AO2 T01930176
K0F2 241255Z AUTO 16009KT 10SM SCT014 SCT110 19/18 A2979 RMK AO2 T01930175
K0F2 241235Z AUTO 17009G14KT 10SM BKN014 19/18 A2980 RMK AO2 T01930175
K0F2 241215Z AUTO 16010G15KT 10SM OVC014 19/17 A2979 RMK AO2 T01900173
K0F2 241155Z AUTO 17009KT 10SM BKN016 BKN120 19/17 A2980 RMK AO2 T01920173 10226 20188
K0F2 241135Z AUTO 17011G17KT 10SM OVC120 19/17 A2978 RMK AO2 T01920171
K0F2 241115Z AUTO 18010G16KT 10SM BKN120 19/17 A2978 RMK AO2 T01900170
K0F2 241055Z AUTO 16009KT 10SM SCT110 19/17 A2978 RMK AO2 T01890168
K0F2 241035Z AUTO 17010G16KT 10SM BKN110 19/17 A2977 RMK AO2 T01900167
K0F2 241015Z AUTO 17009KT 10SM SCT120 19/17 A2977 RMK AO2 T01910167